createdAt,value
2023-01-31T00:01:54.045Z,2.70
2023-01-31T00:04:20.779Z,2.80
2023-01-31T00:06:51.532Z,2.30
2023-01-31T00:09:18.832Z,2.03
2023-01-31T00:11:45.706Z,2.93
2023-01-31T00:14:18.633Z,2.10
2023-01-31T00:16:45.538Z,2.80
2023-01-31T00:19:12.404Z,2.23
2023-01-31T00:21:43.678Z,2.77
2023-01-31T00:24:13.693Z,2.50
2023-01-31T00:26:40.811Z,2.67
2023-01-31T00:29:07.595Z,2.60
2023-01-31T00:31:35.306Z,2.27
2023-01-31T00:34:03.094Z,2.57
2023-01-31T00:36:32.331Z,3.07
2023-01-31T00:39:01.639Z,2.70
2023-01-31T00:41:31.107Z,2.50
2023-01-31T00:43:58.503Z,3.03
2023-01-31T00:46:26.029Z,2.83
2023-01-31T00:48:53.235Z,2.30
2023-01-31T00:51:21.439Z,2.77
2023-01-31T00:53:51.580Z,2.90
2023-01-31T00:56:24.408Z,2.93
2023-01-31T00:58:51.903Z,2.60
2023-01-31T01:01:24.981Z,2.43
2023-01-31T01:03:52.786Z,2.93
2023-01-31T01:06:20.710Z,2.60
2023-01-31T01:08:48.430Z,3.00
2023-01-31T01:11:18.781Z,1.93
2023-01-31T01:13:46.068Z,3.67
2023-01-31T01:16:36.041Z,2.07
2023-01-31T01:19:05.741Z,2.23
2023-01-31T01:21:39.560Z,2.53
2023-01-31T01:24:17.920Z,2.37
2023-01-31T01:26:45.819Z,2.47
2023-01-31T01:29:12.969Z,3.27
2023-01-31T01:31:40.745Z,2.20
2023-01-31T01:34:14.756Z,2.77
2023-01-31T01:36:42.311Z,3.17
2023-01-31T01:39:11.222Z,3.07
2023-01-31T01:41:39.340Z,3.07
2023-01-31T01:44:45.058Z,2.87
2023-01-31T01:47:33.376Z,2.80
2023-01-31T01:50:17.346Z,2.67
2023-01-31T01:52:56.446Z,3.10
2023-01-31T01:55:46.931Z,3.27
2023-01-31T01:58:26.633Z,3.83
2023-01-31T02:00:54.334Z,3.83
2023-01-31T02:03:21.468Z,4.20
2023-01-31T02:06:01.948Z,3.27
2023-01-31T02:08:32.717Z,4.57
2023-01-31T02:11:05.779Z,5.00
2023-01-31T02:13:33.341Z,4.40
2023-01-31T02:16:00.118Z,3.80
2023-01-31T02:18:28.005Z,4.40
2023-01-31T02:21:36.166Z,4.97
2023-01-31T02:24:22.821Z,4.10
2023-01-31T02:27:07.426Z,4.23
2023-01-31T02:29:53.114Z,4.27
2023-01-31T02:32:47.597Z,4.53
2023-01-31T02:35:48.537Z,5.10
2023-01-31T02:38:51.943Z,5.17
2023-01-31T02:41:43.311Z,4.60
2023-01-31T02:44:49.817Z,5.83
2023-01-31T02:47:28.485Z,5.20
2023-01-31T02:50:03.637Z,5.30
2023-01-31T02:52:52.364Z,5.80
2023-01-31T02:55:50.708Z,5.47
2023-01-31T02:58:19.799Z,5.20
2023-01-31T03:00:47.567Z,5.23
2023-01-31T03:03:28.227Z,6.37
2023-01-31T03:06:24.653Z,5.97
2023-01-31T03:09:02.295Z,6.17
2023-01-31T03:11:49.133Z,6.57
2023-01-31T03:14:38.388Z,5.83
2023-01-31T03:17:27.715Z,6.00
2023-01-31T03:20:00.347Z,6.43
2023-01-31T03:22:32.987Z,6.30
2023-01-31T03:25:00.954Z,6.43
2023-01-31T03:27:29.423Z,7.30
2023-01-31T03:30:02.227Z,5.93
2023-01-31T03:32:34.600Z,6.20
2023-01-31T03:35:02.387Z,5.77
2023-01-31T03:37:46.055Z,6.57
2023-01-31T03:40:19.043Z,6.70
2023-01-31T03:42:52.824Z,6.30
2023-01-31T03:45:49.730Z,6.63
2023-01-31T03:48:19.042Z,6.37
2023-01-31T03:51:00.251Z,7.53
2023-01-31T03:53:34.395Z,7.00
2023-01-31T03:56:17.616Z,7.33
2023-01-31T03:58:56.734Z,6.67
2023-01-31T04:01:26.096Z,7.23
2023-01-31T04:03:59.446Z,6.67
2023-01-31T04:06:27.291Z,7.60
2023-01-31T04:08:54.518Z,7.80
2023-01-31T04:11:29.711Z,6.93
2023-01-31T04:13:59.549Z,6.87
2023-01-31T04:16:26.355Z,6.73
2023-01-31T04:18:53.206Z,7.13
2023-01-31T04:21:19.930Z,7.97
2023-01-31T04:23:46.721Z,7.30
2023-01-31T04:26:13.503Z,6.97
2023-01-31T04:28:41.182Z,6.97
2023-01-31T04:31:08.056Z,7.30
2023-01-31T04:33:34.911Z,7.00
2023-01-31T04:36:02.052Z,8.17
2023-01-31T04:38:28.799Z,7.80
2023-01-31T04:40:55.550Z,7.37
2023-01-31T04:43:22.241Z,7.90
2023-01-31T04:45:49.254Z,7.03
2023-01-31T04:48:15.977Z,8.20
2023-01-31T04:50:42.891Z,7.80
2023-01-31T04:53:12.778Z,7.37
2023-01-31T04:55:39.647Z,7.33
2023-01-31T04:58:07.461Z,8.30
2023-01-31T05:00:34.654Z,7.80
2023-01-31T05:03:02.167Z,7.87
2023-01-31T05:05:29.065Z,7.97
2023-01-31T05:07:55.914Z,8.03
2023-01-31T05:10:23.177Z,7.90
2023-01-31T05:12:49.945Z,8.47
2023-01-31T05:15:17.361Z,9.30
2023-01-31T05:17:45.112Z,7.70
2023-01-31T05:20:12.078Z,8.27
2023-01-31T05:22:38.887Z,8.13
2023-01-31T05:25:06.136Z,8.53
2023-01-31T05:27:33.575Z,8.30
2023-01-31T05:30:00.886Z,8.70
2023-01-31T05:32:27.718Z,7.90
2023-01-31T05:34:54.448Z,9.40
2023-01-31T05:37:21.212Z,8.93
2023-01-31T05:39:47.972Z,7.80
2023-01-31T05:42:14.776Z,8.93
2023-01-31T05:44:44.299Z,8.00
2023-01-31T05:47:11.085Z,8.97
2023-01-31T05:49:37.921Z,8.20
2023-01-31T05:52:04.797Z,8.47
2023-01-31T05:54:31.561Z,8.13
2023-01-31T05:56:58.337Z,8.90
2023-01-31T05:59:26.419Z,9.57
2023-01-31T06:01:54.469Z,9.23
2023-01-31T06:04:21.439Z,8.27
2023-01-31T06:06:48.394Z,7.83
2023-01-31T06:09:15.237Z,8.90
2023-01-31T06:11:42.104Z,8.70
2023-01-31T06:14:09.620Z,9.03
2023-01-31T06:16:36.692Z,8.37
2023-01-31T06:19:03.544Z,9.33
2023-01-31T06:21:30.739Z,8.47
2023-01-31T06:23:57.693Z,7.80
2023-01-31T06:26:24.603Z,8.80
2023-01-31T06:28:51.428Z,8.40
2023-01-31T06:31:19.961Z,7.73
2023-01-31T06:33:49.855Z,8.77
2023-01-31T06:36:19.234Z,7.80
2023-01-31T06:38:50.509Z,8.40
2023-01-31T06:41:22.013Z,8.20
2023-01-31T06:43:51.911Z,8.37
2023-01-31T06:46:18.735Z,8.53
2023-01-31T06:48:45.537Z,7.87
2023-01-31T06:51:15.932Z,7.13
2023-01-31T06:53:45.882Z,7.40
2023-01-31T06:56:12.721Z,7.50
2023-01-31T06:58:40.046Z,8.37
2023-01-31T07:01:09.161Z,6.77
2023-01-31T07:03:36.074Z,7.43
2023-01-31T07:06:03.160Z,7.77
2023-01-31T07:08:33.212Z,7.43
2023-01-31T07:11:02.216Z,6.93
2023-01-31T07:13:33.406Z,7.17
2023-01-31T07:16:00.373Z,7.63
2023-01-31T07:18:30.186Z,7.13
2023-01-31T07:20:57.526Z,7.03
2023-01-31T07:23:24.443Z,7.27
2023-01-31T07:25:51.864Z,8.10
2023-01-31T07:28:18.739Z,7.17
2023-01-31T07:30:48.639Z,7.37
2023-01-31T07:33:15.448Z,7.20
2023-01-31T07:35:43.882Z,7.20
2023-01-31T07:38:11.526Z,7.27
2023-01-31T07:40:40.286Z,7.17
2023-01-31T07:43:07.290Z,6.70
2023-01-31T07:45:34.517Z,7.63
2023-01-31T07:48:01.419Z,7.90
2023-01-31T07:50:29.598Z,7.00
2023-01-31T07:52:58.629Z,7.13
2023-01-31T07:55:29.793Z,7.00
2023-01-31T07:57:56.571Z,6.83
2023-01-31T08:00:55.612Z,7.07
2023-01-31T08:03:33.661Z,8.07
2023-01-31T08:06:02.951Z,7.57
2023-01-31T08:08:29.885Z,6.97
2023-01-31T08:10:56.710Z,7.13
2023-01-31T08:13:23.675Z,8.17
2023-01-31T08:15:52.447Z,6.67
2023-01-31T08:18:19.505Z,7.53
2023-01-31T08:20:46.431Z,7.00
2023-01-31T08:23:13.200Z,6.63
2023-01-31T08:25:40.109Z,5.90
2023-01-31T08:28:07.085Z,6.10
2023-01-31T08:30:34.048Z,6.27
2023-01-31T08:33:01.032Z,6.17
2023-01-31T08:35:28.362Z,6.13
2023-01-31T08:38:03.749Z,6.40
2023-01-31T08:40:34.256Z,5.70
2023-01-31T08:43:01.935Z,6.33
2023-01-31T08:45:31.549Z,5.67
2023-01-31T08:48:00.155Z,6.13
2023-01-31T08:50:29.500Z,5.97
2023-01-31T08:52:57.533Z,6.03
2023-01-31T08:55:27.414Z,5.80
2023-01-31T08:57:59.793Z,5.90
2023-01-31T09:00:27.627Z,5.23
2023-01-31T09:02:56.772Z,5.43
2023-01-31T09:05:25.643Z,6.20
2023-01-31T09:07:52.676Z,4.93
2023-01-31T09:10:20.558Z,5.73
2023-01-31T09:12:47.999Z,5.00
2023-01-31T09:15:15.026Z,5.90
2023-01-31T09:17:45.174Z,5.47
2023-01-31T09:20:12.233Z,5.17
2023-01-31T09:22:39.071Z,5.60
2023-01-31T09:25:06.962Z,5.27
2023-01-31T09:27:35.354Z,5.10
2023-01-31T09:30:02.696Z,4.70
2023-01-31T09:32:33.394Z,5.23
2023-01-31T09:35:00.268Z,5.13
2023-01-31T09:37:30.954Z,5.97
2023-01-31T09:39:58.051Z,4.83
2023-01-31T09:42:45.785Z,5.27
2023-01-31T09:45:37.953Z,4.77
2023-01-31T09:48:07.260Z,4.73
2023-01-31T09:50:46.391Z,4.13
2023-01-31T09:53:21.894Z,5.00
2023-01-31T09:56:10.745Z,4.67
2023-01-31T09:58:40.912Z,4.10
2023-01-31T10:01:39.111Z,4.60
2023-01-31T10:04:39.309Z,4.37
2023-01-31T10:07:15.777Z,5.13
2023-01-31T10:09:55.753Z,5.03
2023-01-31T10:12:32.778Z,5.43
2023-01-31T10:15:10.940Z,4.80
2023-01-31T10:17:45.155Z,5.27
2023-01-31T10:20:45.058Z,4.70
2023-01-31T10:23:26.163Z,5.50
2023-01-31T10:25:59.307Z,5.20
2023-01-31T10:28:43.216Z,5.37
2023-01-31T10:31:47.127Z,5.17
2023-01-31T10:34:29.359Z,5.23
2023-01-31T10:36:56.200Z,5.47
2023-01-31T10:39:32.480Z,6.37
2023-01-31T10:42:32.783Z,5.93
2023-01-31T10:45:08.876Z,5.83
2023-01-31T10:47:39.280Z,5.93
2023-01-31T10:50:19.824Z,5.50
2023-01-31T10:53:11.124Z,6.07
2023-01-31T10:55:50.041Z,6.00
2023-01-31T10:58:20.064Z,5.57
2023-01-31T11:00:47.460Z,6.30
2023-01-31T11:03:15.772Z,5.37
2023-01-31T11:05:54.255Z,6.00
2023-01-31T11:08:57.380Z,5.80
2023-01-31T11:11:27.681Z,5.73
2023-01-31T11:14:01.805Z,5.33
2023-01-31T11:16:32.029Z,4.70
2023-01-31T11:19:01.688Z,5.33
2023-01-31T11:21:34.366Z,5.10
2023-01-31T11:24:05.893Z,4.57
2023-01-31T11:26:39.481Z,5.40
2023-01-31T11:29:27.368Z,4.63
2023-01-31T11:31:55.632Z,4.87
2023-01-31T11:34:23.643Z,4.80
2023-01-31T11:36:51.268Z,4.30
2023-01-31T11:39:32.016Z,4.03
2023-01-31T11:42:16.011Z,4.70
2023-01-31T11:44:54.727Z,4.60
2023-01-31T11:47:41.845Z,4.90
2023-01-31T11:50:31.906Z,3.97
2023-01-31T11:53:06.380Z,4.07
2023-01-31T11:55:38.604Z,4.07
2023-01-31T11:58:18.251Z,4.40
2023-01-31T12:01:11.661Z,4.97
2023-01-31T12:03:55.296Z,4.10
2023-01-31T12:06:29.871Z,4.80
2023-01-31T12:08:58.544Z,4.27
2023-01-31T12:11:31.345Z,4.50
2023-01-31T12:14:07.262Z,4.30
2023-01-31T12:16:38.802Z,4.33
2023-01-31T12:19:14.705Z,4.23
2023-01-31T12:22:04.017Z,4.47
2023-01-31T12:24:43.055Z,4.17
2023-01-31T12:27:40.672Z,3.93
2023-01-31T12:30:33.930Z,4.37
2023-01-31T12:33:12.275Z,4.60
2023-01-31T12:36:06.037Z,4.50
2023-01-31T12:38:47.286Z,4.93
2023-01-31T12:41:17.120Z,3.90
2023-01-31T12:44:16.328Z,4.47
2023-01-31T12:47:11.078Z,4.07
2023-01-31T12:50:13.361Z,3.77
2023-01-31T12:53:02.134Z,4.23
2023-01-31T12:55:52.556Z,4.13
2023-01-31T12:58:42.792Z,3.87
2023-01-31T13:01:22.964Z,3.50
2023-01-31T13:04:30.688Z,3.63
2023-01-31T13:07:00.939Z,3.50
2023-01-31T13:09:36.617Z,3.93
2023-01-31T13:12:13.134Z,3.60
2023-01-31T13:14:44.314Z,3.03
2023-01-31T13:17:15.555Z,3.33
2023-01-31T13:19:57.521Z,4.10
2023-01-31T13:22:33.880Z,3.10
2023-01-31T13:25:24.430Z,3.20
2023-01-31T13:28:01.315Z,3.50
2023-01-31T13:30:43.531Z,3.77
2023-01-31T13:33:34.822Z,3.47
2023-01-31T13:36:19.100Z,3.00
2023-01-31T13:38:49.895Z,2.70
2023-01-31T13:41:30.544Z,3.77
2023-01-31T13:44:00.025Z,3.53
2023-01-31T13:46:42.809Z,3.40
2023-01-31T13:49:23.457Z,3.13
2023-01-31T13:52:06.235Z,3.03
2023-01-31T13:54:37.506Z,3.70
2023-01-31T13:57:06.127Z,3.27
2023-01-31T13:59:35.903Z,2.37
2023-01-31T14:02:08.061Z,3.80
2023-01-31T14:04:40.081Z,2.37
2023-01-31T14:07:07.165Z,2.63
2023-01-31T14:09:52.233Z,3.10
2023-01-31T14:12:18.983Z,2.60
2023-01-31T14:14:51.286Z,2.60
2023-01-31T14:17:24.184Z,2.60
2023-01-31T14:20:01.263Z,2.57
2023-01-31T14:22:36.367Z,2.97
2023-01-31T14:25:41.650Z,2.60
2023-01-31T14:28:11.390Z,2.67
2023-01-31T14:30:43.876Z,2.90
2023-01-31T14:33:13.586Z,2.87
2023-01-31T14:36:04.189Z,2.40
2023-01-31T14:38:44.608Z,2.43
2023-01-31T14:41:37.497Z,2.57
2023-01-31T14:44:25.387Z,2.80
2023-01-31T14:47:25.857Z,2.87
2023-01-31T14:50:16.318Z,3.00
2023-01-31T14:53:03.203Z,2.50
2023-01-31T14:55:38.862Z,2.90
2023-01-31T14:58:15.561Z,2.53
2023-01-31T15:00:50.605Z,2.60
2023-01-31T15:03:22.217Z,2.70
2023-01-31T15:05:52.600Z,2.83
2023-01-31T15:08:19.862Z,2.53
2023-01-31T15:11:30.462Z,2.57
2023-01-31T15:14:34.191Z,2.53
2023-01-31T15:17:09.884Z,2.70
2023-01-31T15:19:57.570Z,2.43
2023-01-31T15:22:26.527Z,3.47
2023-01-31T15:25:02.238Z,2.73
2023-01-31T15:27:31.965Z,3.03
2023-01-31T15:29:58.771Z,3.27
2023-01-31T15:32:49.701Z,2.73
2023-01-31T15:35:23.362Z,2.83
2023-01-31T15:38:05.055Z,2.43
2023-01-31T15:40:31.936Z,2.00
2023-01-31T15:43:21.579Z,2.90
2023-01-31T15:45:52.317Z,2.53
2023-01-31T15:48:21.905Z,2.63
2023-01-31T15:50:50.483Z,2.63
2023-01-31T15:53:18.444Z,2.53
2023-01-31T15:55:48.129Z,2.53
2023-01-31T15:58:20.952Z,2.97
2023-01-31T16:00:52.906Z,2.60
2023-01-31T16:03:25.988Z,2.47
2023-01-31T16:05:57.743Z,2.33
2023-01-31T16:08:40.802Z,2.60
2023-01-31T16:11:09.861Z,2.80
2023-01-31T16:13:42.960Z,2.70
2023-01-31T16:16:13.962Z,2.50
2023-01-31T16:18:44.218Z,2.53
2023-01-31T16:21:15.865Z,2.40
2023-01-31T16:23:43.161Z,2.37
2023-01-31T16:26:21.110Z,2.00
2023-01-31T16:28:57.160Z,2.50
2023-01-31T16:31:32.340Z,2.23
2023-01-31T16:34:01.630Z,1.93
2023-01-31T16:36:33.724Z,2.10
2023-01-31T16:39:03.746Z,2.67
2023-01-31T16:41:52.343Z,2.73
2023-01-31T16:44:21.964Z,2.30
2023-01-31T16:46:53.569Z,2.40
2023-01-31T16:49:33.980Z,2.43
2023-01-31T16:52:27.771Z,2.63
2023-01-31T16:55:00.182Z,2.47
2023-01-31T16:57:35.845Z,2.37
2023-01-31T17:00:07.406Z,3.50
2023-01-31T17:02:42.101Z,2.70
2023-01-31T17:05:35.243Z,2.30
2023-01-31T17:08:03.397Z,2.23
2023-01-31T17:10:34.055Z,2.13
2023-01-31T17:13:02.109Z,2.53
2023-01-31T17:15:29.159Z,2.20
2023-01-31T17:17:56.718Z,2.73
2023-01-31T17:20:24.087Z,2.30
2023-01-31T17:23:00.769Z,3.20
2023-01-31T17:25:32.680Z,2.87
2023-01-31T17:27:59.503Z,3.07
2023-01-31T17:30:30.115Z,2.60
2023-01-31T17:32:57.511Z,2.63
2023-01-31T17:35:32.459Z,3.80
2023-01-31T17:37:59.284Z,2.43
2023-01-31T17:40:26.390Z,2.90
2023-01-31T17:42:57.791Z,3.47
2023-01-31T17:45:25.759Z,3.30
2023-01-31T17:47:55.488Z,3.37
2023-01-31T17:50:25.870Z,3.77
2023-01-31T17:52:54.017Z,3.30
2023-01-31T17:55:23.149Z,3.77
2023-01-31T17:57:50.936Z,3.70
2023-01-31T18:00:19.573Z,3.70
2023-01-31T18:02:46.490Z,3.27
2023-01-31T18:05:18.709Z,3.20
2023-01-31T18:07:49.790Z,2.77
2023-01-31T18:10:17.194Z,2.97
2023-01-31T18:12:44.201Z,2.50
2023-01-31T18:15:11.442Z,2.67
2023-01-31T18:17:38.294Z,3.10
2023-01-31T18:20:05.618Z,3.10
2023-01-31T18:22:32.543Z,3.80
2023-01-31T18:24:59.272Z,3.80
2023-01-31T18:27:26.170Z,3.47
2023-01-31T18:29:55.602Z,4.50
2023-01-31T18:32:22.521Z,4.80
2023-01-31T18:34:49.329Z,4.37
2023-01-31T18:37:20.290Z,4.10
2023-01-31T18:39:51.149Z,3.83
2023-01-31T18:42:19.420Z,3.50
2023-01-31T18:44:49.401Z,3.30
2023-01-31T18:47:17.057Z,3.37
2023-01-31T18:49:43.992Z,2.97
2023-01-31T18:52:10.937Z,3.03
2023-01-31T18:54:38.128Z,2.93
2023-01-31T18:57:05.260Z,3.23
2023-01-31T18:59:34.701Z,3.43
2023-01-31T19:02:01.649Z,4.00
2023-01-31T19:04:28.541Z,4.13
2023-01-31T19:06:55.416Z,3.67
2023-01-31T19:09:22.521Z,4.00
2023-01-31T19:11:49.382Z,3.50
2023-01-31T19:14:16.386Z,3.63
2023-01-31T19:16:44.831Z,4.30
2023-01-31T19:19:12.750Z,4.00
2023-01-31T19:21:40.261Z,3.57
2023-01-31T19:24:14.374Z,3.50
2023-01-31T19:26:43.363Z,3.87
2023-01-31T19:29:14.017Z,4.03
2023-01-31T19:31:41.399Z,4.07
2023-01-31T19:34:10.597Z,4.60
2023-01-31T19:36:41.653Z,3.73
2023-01-31T19:39:11.961Z,4.00
2023-01-31T19:41:39.530Z,4.57
2023-01-31T19:44:06.478Z,3.63
2023-01-31T19:46:35.867Z,4.17
2023-01-31T19:49:02.868Z,3.80
2023-01-31T19:51:38.041Z,4.00
2023-01-31T19:54:06.547Z,4.27
2023-01-31T19:56:36.472Z,3.90
2023-01-31T19:59:03.524Z,3.77
2023-01-31T20:01:30.380Z,4.03
2023-01-31T20:04:04.343Z,3.80
2023-01-31T20:06:35.138Z,4.10
2023-01-31T20:09:07.532Z,4.23
2023-01-31T20:11:35.058Z,4.70
2023-01-31T20:14:02.181Z,4.50
2023-01-31T20:16:32.278Z,4.10
2023-01-31T20:19:01.376Z,3.83
2023-01-31T20:21:31.403Z,4.50
2023-01-31T20:23:58.959Z,4.63
2023-01-31T20:26:27.827Z,3.63
2023-01-31T20:28:57.130Z,3.80
2023-01-31T20:31:24.201Z,4.10
2023-01-31T20:33:55.692Z,3.90
2023-01-31T20:36:25.501Z,4.00
2023-01-31T20:38:55.558Z,4.30
2023-01-31T20:41:25.395Z,3.90
2023-01-31T20:43:54.121Z,3.93
2023-01-31T20:46:24.789Z,4.17
2023-01-31T20:48:51.935Z,4.00
2023-01-31T20:51:18.831Z,3.30
2023-01-31T20:53:45.775Z,3.90
2023-01-31T20:56:12.685Z,4.00
2023-01-31T20:58:41.429Z,3.40
2023-01-31T21:01:12.335Z,3.30
2023-01-31T21:03:39.305Z,3.70
2023-01-31T21:06:08.120Z,3.70
2023-01-31T21:08:38.969Z,3.37
2023-01-31T21:11:09.082Z,3.43
2023-01-31T21:13:36.692Z,3.47
2023-01-31T21:16:10.039Z,3.67
2023-01-31T21:18:39.843Z,3.70
2023-01-31T21:21:09.821Z,3.43
2023-01-31T21:23:41.226Z,3.43
2023-01-31T21:26:12.299Z,3.93
2023-01-31T21:28:43.839Z,3.90
2023-01-31T21:31:16.635Z,3.60
2023-01-31T21:33:48.178Z,3.73
2023-01-31T21:36:17.735Z,4.27
2023-01-31T21:38:45.248Z,3.20
2023-01-31T21:41:34.919Z,3.07
2023-01-31T21:44:03.972Z,4.07
2023-01-31T21:46:30.801Z,2.47
2023-01-31T21:48:59.735Z,3.00
2023-01-31T21:51:26.879Z,3.10
2023-01-31T21:53:54.467Z,3.80
2023-01-31T21:56:24.654Z,2.50
2023-01-31T21:58:56.668Z,2.60
2023-01-31T22:01:29.788Z,3.10
2023-01-31T22:03:56.990Z,2.27
2023-01-31T22:06:31.640Z,2.47
2023-01-31T22:09:02.267Z,2.50
2023-01-31T22:11:33.024Z,2.43
2023-01-31T22:14:01.239Z,2.33
2023-01-31T22:16:30.897Z,2.17
2023-01-31T22:19:00.549Z,2.30
2023-01-31T22:21:31.998Z,2.33
2023-01-31T22:24:00.919Z,2.50
2023-01-31T22:26:39.787Z,2.30
2023-01-31T22:29:09.132Z,2.60
2023-01-31T22:31:36.868Z,1.97
2023-01-31T22:34:05.535Z,2.63
2023-01-31T22:36:33.354Z,2.37
2023-01-31T22:39:00.364Z,3.57
2023-01-31T22:41:30.355Z,2.53
2023-01-31T22:43:57.079Z,2.67
2023-01-31T22:46:27.999Z,2.60
2023-01-31T22:48:55.419Z,3.23
2023-01-31T22:51:26.040Z,2.40
2023-01-31T22:53:54.264Z,2.33
2023-01-31T22:56:24.608Z,2.83
2023-01-31T22:58:56.178Z,2.00
2023-01-31T23:01:24.424Z,2.70
2023-01-31T23:03:54.835Z,2.73
2023-01-31T23:06:21.664Z,2.60
2023-01-31T23:08:48.469Z,2.57
2023-01-31T23:11:16.952Z,2.43
2023-01-31T23:13:47.258Z,2.40
2023-01-31T23:16:42.874Z,2.80
2023-01-31T23:19:10.331Z,2.90
2023-01-31T23:21:42.590Z,2.43
2023-01-31T23:24:09.798Z,2.53
2023-01-31T23:26:36.719Z,2.40
2023-01-31T23:29:03.606Z,2.57
2023-01-31T23:31:32.523Z,2.43
2023-01-31T23:34:02.737Z,3.00
2023-01-31T23:36:29.576Z,2.93
2023-01-31T23:38:56.354Z,2.50
2023-01-31T23:41:23.219Z,2.40
2023-01-31T23:43:49.941Z,2.57
2023-01-31T23:46:16.709Z,3.13
2023-01-31T23:48:46.372Z,3.90
2023-01-31T23:51:13.180Z,2.47
2023-01-31T23:53:39.936Z,2.83
2023-01-31T23:56:07.542Z,2.90
2023-01-31T23:58:36.922Z,2.57
